sensor_id;sensor_type;location;lat;lon;timestamp;temperature;humidity
54540;SHT30;40438;52.992;18.604;2023-03-15T00:00:54;20.14;63.88
54540;SHT30;40438;52.992;18.604;2023-03-15T00:03:21;20.14;63.81
54540;SHT30;40438;52.992;18.604;2023-03-15T00:05:48;20.15;63.51
54540;SHT30;40438;52.992;18.604;2023-03-15T00:08:16;20.14;63.44
54540;SHT30;40438;52.992;18.604;2023-03-15T00:10:43;20.11;63.72
54540;SHT30;40438;52.992;18.604;2023-03-15T00:13:10;20.08;63.83
54540;SHT30;40438;52.992;18.604;2023-03-15T00:15:43;20.05;63.55
54540;SHT30;40438;52.992;18.604;2023-03-15T00:18:09;20.08;63.68
54540;SHT30;40438;52.992;18.604;2023-03-15T00:20:36;20.05;63.67
54540;SHT30;40438;52.992;18.604;2023-03-15T00:23:02;20.03;63.91
54540;SHT30;40438;52.992;18.604;2023-03-15T00:25:29;20.08;63.72
54540;SHT30;40438;52.992;18.604;2023-03-15T00:27:55;20.03;63.58
54540;SHT30;40438;52.992;18.604;2023-03-15T00:30:21;19.98;63.85
54540;SHT30;40438;52.992;18.604;2023-03-15T00:32:46;19.98;63.76
54540;SHT30;40438;52.992;18.604;2023-03-15T00:35:12;20.00;63.43
54540;SHT30;40438;52.992;18.604;2023-03-15T00:37:38;19.96;63.80
54540;SHT30;40438;52.992;18.604;2023-03-15T00:40:05;20.00;62.94
54540;SHT30;40438;52.992;18.604;2023-03-15T00:42:32;20.00;63.43
54540;SHT30;40438;52.992;18.604;2023-03-15T00:44:58;19.91;63.58
54540;SHT30;40438;52.992;18.604;2023-03-15T00:47:24;19.90;63.68
54540;SHT30;40438;52.992;18.604;2023-03-15T00:49:52;19.98;62.50
54540;SHT30;40438;52.992;18.604;2023-03-15T00:52:17;19.91;63.30
54540;SHT30;40438;52.992;18.604;2023-03-15T00:54:50;19.88;63.27
54540;SHT30;40438;52.992;18.604;2023-03-15T00:57:16;19.90;63.50
54540;SHT30;40438;52.992;18.604;2023-03-15T00:59:43;19.90;63.33
54540;SHT30;40438;52.992;18.604;2023-03-15T01:02:09;19.90;63.37
54540;SHT30;40438;52.992;18.604;2023-03-15T01:04:35;19.90;63.59
54540;SHT30;40438;52.992;18.604;2023-03-15T01:07:02;19.93;63.40
54540;SHT30;40438;52.992;18.604;2023-03-15T01:09:28;19.87;63.60
54540;SHT30;40438;52.992;18.604;2023-03-15T01:11:53;19.87;63.56
54540;SHT30;40438;52.992;18.604;2023-03-15T01:14:19;19.91;63.17
54540;SHT30;40438;52.992;18.604;2023-03-15T01:16:46;19.94;62.62
54540;SHT30;40438;52.992;18.604;2023-03-15T01:19:12;19.98;63.11
54540;SHT30;40438;52.992;18.604;2023-03-15T01:21:38;19.88;62.82
54540;SHT30;40438;52.992;18.604;2023-03-15T01:24:04;19.91;62.62
54540;SHT30;40438;52.992;18.604;2023-03-15T01:26:30;19.85;62.94
54540;SHT30;40438;52.992;18.604;2023-03-15T01:28:56;19.83;63.28
54540;SHT30;40438;52.992;18.604;2023-03-15T01:31:25;19.75;63.31
54540;SHT30;40438;52.992;18.604;2023-03-15T01:33:53;19.90;62.68
54540;SHT30;40438;52.992;18.604;2023-03-15T01:36:20;19.87;62.69
54540;SHT30;40438;52.992;18.604;2023-03-15T01:38:46;19.93;62.52
54540;SHT30;40438;52.992;18.604;2023-03-15T01:41:13;20.00;62.32
54540;SHT30;40438;52.992;18.604;2023-03-15T01:43:41;19.90;62.36
54540;SHT30;40438;52.992;18.604;2023-03-15T01:46:23;19.77;63.55
54540;SHT30;40438;52.992;18.604;2023-03-15T01:49:01;19.83;63.33
54540;SHT30;40438;52.992;18.604;2023-03-15T01:51:35;19.84;63.37
54540;SHT30;40438;52.992;18.604;2023-03-15T01:54:05;19.77;63.07
54540;SHT30;40438;52.992;18.604;2023-03-15T01:56:35;19.85;62.60
54540;SHT30;40438;52.992;18.604;2023-03-15T01:59:04;19.85;63.09
54540;SHT30;40438;52.992;18.604;2023-03-15T02:01:32;19.93;62.89
54540;SHT30;40438;52.992;18.604;2023-03-15T02:04:03;19.94;62.69
54540;SHT30;40438;52.992;18.604;2023-03-15T02:06:35;19.91;62.13
54540;SHT30;40438;52.992;18.604;2023-03-15T02:09:03;19.91;62.50
54540;SHT30;40438;52.992;18.604;2023-03-15T02:11:35;19.96;62.26
54540;SHT30;40438;52.992;18.604;2023-03-15T02:14:04;19.94;62.03
54540;SHT30;40438;52.992;18.604;2023-03-15T02:16:30;19.93;62.34
54540;SHT30;40438;52.992;18.604;2023-03-15T02:19:03;19.98;61.85
54540;SHT30;40438;52.992;18.604;2023-03-15T02:21:37;20.05;61.87
54540;SHT30;40438;52.992;18.604;2023-03-15T02:24:12;20.03;61.80
54540;SHT30;40438;52.992;18.604;2023-03-15T02:26:43;20.15;61.37
54540;SHT30;40438;52.992;18.604;2023-03-15T02:29:11;19.97;61.95
54540;SHT30;40438;52.992;18.604;2023-03-15T02:31:37;20.07;61.87
54540;SHT30;40438;52.992;18.604;2023-03-15T02:34:04;20.00;61.81
54540;SHT30;40438;52.992;18.604;2023-03-15T02:36:31;19.98;62.18
54540;SHT30;40438;52.992;18.604;2023-03-15T02:38:58;19.91;62.47
54540;SHT30;40438;52.992;18.604;2023-03-15T02:41:27;19.81;63.14
54540;SHT30;40438;52.992;18.604;2023-03-15T02:43:58;19.80;62.98
54540;SHT30;40438;52.992;18.604;2023-03-15T02:46:26;19.74;63.47
54540;SHT30;40438;52.992;18.604;2023-03-15T02:48:52;19.71;63.48
54540;SHT30;40438;52.992;18.604;2023-03-15T02:51:20;19.46;64.39
54540;SHT30;40438;52.992;18.604;2023-03-15T02:53:47;19.47;64.10
54540;SHT30;40438;52.992;18.604;2023-03-15T02:56:13;19.26;64.77
54540;SHT30;40438;52.992;18.604;2023-03-15T02:58:40;19.18;65.25
54540;SHT30;40438;52.992;18.604;2023-03-15T03:01:06;19.31;64.90
54540;SHT30;40438;52.992;18.604;2023-03-15T03:03:33;19.21;65.31
54540;SHT30;40438;52.992;18.604;2023-03-15T03:06:00;19.29;64.93
54540;SHT30;40438;52.992;18.604;2023-03-15T03:08:25;19.23;65.01
54540;SHT30;40438;52.992;18.604;2023-03-15T03:10:52;19.63;62.99
54540;SHT30;40438;52.992;18.604;2023-03-15T03:13:18;19.38;64.25
54540;SHT30;40438;52.992;18.604;2023-03-15T03:15:44;19.88;61.34
54540;SHT30;40438;52.992;18.604;2023-03-15T03:18:10;19.81;62.50
54540;SHT30;40438;52.992;18.604;2023-03-15T03:20:37;19.98;60.81
54540;SHT30;40438;52.992;18.604;2023-03-15T03:23:04;20.03;60.87
54540;SHT30;40438;52.992;18.604;2023-03-15T03:25:31;19.83;61.87
54540;SHT30;40438;52.992;18.604;2023-03-15T03:27:57;19.97;60.78
54540;SHT30;40438;52.992;18.604;2023-03-15T03:30:25;19.96;61.04
54540;SHT30;40438;52.992;18.604;2023-03-15T03:32:51;19.96;61.14
54540;SHT30;40438;52.992;18.604;2023-03-15T03:35:18;19.96;61.09
54540;SHT30;40438;52.992;18.604;2023-03-15T03:37:46;20.03;60.71
54540;SHT30;40438;52.992;18.604;2023-03-15T03:40:19;19.93;61.26
54540;SHT30;40438;52.992;18.604;2023-03-15T03:42:45;20.01;60.60
54540;SHT30;40438;52.992;18.604;2023-03-15T03:45:11;19.96;61.47
54540;SHT30;40438;52.992;18.604;2023-03-15T03:47:41;19.97;60.98
54540;SHT30;40438;52.992;18.604;2023-03-15T03:50:08;19.97;60.83
54540;SHT30;40438;52.992;18.604;2023-03-15T03:52:34;20.03;60.69
54540;SHT30;40438;52.992;18.604;2023-03-15T03:55:07;20.01;59.97
54540;SHT30;40438;52.992;18.604;2023-03-15T03:57:33;19.98;60.68
54540;SHT30;40438;52.992;18.604;2023-03-15T03:59:59;20.01;60.32
54540;SHT30;40438;52.992;18.604;2023-03-15T04:02:26;19.78;61.71
54540;SHT30;40438;52.992;18.604;2023-03-15T04:04:59;19.45;62.76
54540;SHT30;40438;52.992;18.604;2023-03-15T04:07:25;19.78;63.37
54540;SHT30;40438;52.992;18.604;2023-03-15T04:09:52;20.05;62.88
54540;SHT30;40438;52.992;18.604;2023-03-15T04:12:20;20.24;62.31
54540;SHT30;40438;52.992;18.604;2023-03-15T04:14:46;20.35;62.08
54540;SHT30;40438;52.992;18.604;2023-03-15T04:17:13;20.41;61.96
54540;SHT30;40438;52.992;18.604;2023-03-15T04:19:40;20.55;61.81
54540;SHT30;40438;52.992;18.604;2023-03-15T04:22:07;20.59;61.43
54540;SHT30;40438;52.992;18.604;2023-03-15T04:24:56;20.64;61.38
54540;SHT30;40438;52.992;18.604;2023-03-15T04:27:42;20.63;60.51
54540;SHT30;40438;52.992;18.604;2023-03-15T04:30:32;20.60;61.57
54540;SHT30;40438;52.992;18.604;2023-03-15T04:33:27;20.66;61.69
54540;SHT30;40438;52.992;18.604;2023-03-15T04:36:07;20.76;61.30
54540;SHT30;40438;52.992;18.604;2023-03-15T04:39:05;20.82;61.27
54540;SHT30;40438;52.992;18.604;2023-03-15T04:41:57;20.82;61.11
54540;SHT30;40438;52.992;18.604;2023-03-15T04:44:40;20.80;61.67
54540;SHT30;40438;52.992;18.604;2023-03-15T04:47:44;20.82;61.81
54540;SHT30;40438;52.992;18.604;2023-03-15T04:50:31;20.84;61.59
54540;SHT30;40438;52.992;18.604;2023-03-15T04:53:10;20.83;61.62
54540;SHT30;40438;52.992;18.604;2023-03-15T04:56:05;20.82;61.44
54540;SHT30;40438;52.992;18.604;2023-03-15T04:58:51;20.89;61.03
54540;SHT30;40438;52.992;18.604;2023-03-15T05:01:50;20.89;61.12
54540;SHT30;40438;52.992;18.604;2023-03-15T05:04:35;20.94;60.41
54540;SHT30;40438;52.992;18.604;2023-03-15T05:07:19;20.99;59.82
54540;SHT30;40438;52.992;18.604;2023-03-15T05:10:09;21.00;60.10
54540;SHT30;40438;52.992;18.604;2023-03-15T05:12:53;21.00;59.79
54540;SHT30;40438;52.992;18.604;2023-03-15T05:15:37;20.99;59.69
54540;SHT30;40438;52.992;18.604;2023-03-15T05:18:15;21.01;60.20
54540;SHT30;40438;52.992;18.604;2023-03-15T05:20:48;21.04;59.85
54540;SHT30;40438;52.992;18.604;2023-03-15T05:23:30;21.06;59.97
54540;SHT30;40438;52.992;18.604;2023-03-15T05:26:06;21.06;59.88
54540;SHT30;40438;52.992;18.604;2023-03-15T05:28:52;21.11;60.75
54540;SHT30;40438;52.992;18.604;2023-03-15T05:31:41;21.14;60.71
54540;SHT30;40438;52.992;18.604;2023-03-15T05:34:14;21.13;60.81
54540;SHT30;40438;52.992;18.604;2023-03-15T05:36:56;21.14;60.07
54540;SHT30;40438;52.992;18.604;2023-03-15T05:39:40;21.13;59.82
54540;SHT30;40438;52.992;18.604;2023-03-15T05:42:38;21.10;60.07
54540;SHT30;40438;52.992;18.604;2023-03-15T05:45:20;21.08;59.75
54540;SHT30;40438;52.992;18.604;2023-03-15T05:48:09;21.06;59.75
54540;SHT30;40438;52.992;18.604;2023-03-15T05:50:56;21.03;60.28
54540;SHT30;40438;52.992;18.604;2023-03-15T05:53:31;21.07;59.82
54540;SHT30;40438;52.992;18.604;2023-03-15T05:56:17;21.07;60.23
54540;SHT30;40438;52.992;18.604;2023-03-15T05:59:05;21.10;59.74
54540;SHT30;40438;52.992;18.604;2023-03-15T06:01:49;21.07;59.95
54540;SHT30;40438;52.992;18.604;2023-03-15T06:04:21;21.06;59.77
54540;SHT30;40438;52.992;18.604;2023-03-15T06:06:48;21.06;59.87
54540;SHT30;40438;52.992;18.604;2023-03-15T06:09:14;21.08;59.65
54540;SHT30;40438;52.992;18.604;2023-03-15T06:11:40;21.08;59.63
54540;SHT30;40438;52.992;18.604;2023-03-15T06:14:09;21.15;59.65
54540;SHT30;40438;52.992;18.604;2023-03-15T06:16:40;21.15;59.67
54540;SHT30;40438;52.992;18.604;2023-03-15T06:19:07;21.17;59.90
54540;SHT30;40438;52.992;18.604;2023-03-15T06:21:32;21.20;59.68
54540;SHT30;40438;52.992;18.604;2023-03-15T06:24:01;21.17;60.17
54540;SHT30;40438;52.992;18.604;2023-03-15T06:26:26;21.18;59.74
54540;SHT30;40438;52.992;18.604;2023-03-15T06:28:57;21.26;59.51
54540;SHT30;40438;52.992;18.604;2023-03-15T06:31:23;21.30;59.23
54540;SHT30;40438;52.992;18.604;2023-03-15T06:33:56;21.30;59.01
54540;SHT30;40438;52.992;18.604;2023-03-15T06:36:22;21.27;58.94
54540;SHT30;40438;52.992;18.604;2023-03-15T06:38:48;21.32;59.07
54540;SHT30;40438;52.992;18.604;2023-03-15T06:41:16;21.30;59.04
54540;SHT30;40438;52.992;18.604;2023-03-15T06:43:43;21.30;58.93
54540;SHT30;40438;52.992;18.604;2023-03-15T06:46:09;21.28;59.24
54540;SHT30;40438;52.992;18.604;2023-03-15T06:48:34;21.30;59.00
54540;SHT30;40438;52.992;18.604;2023-03-15T06:51:00;21.28;58.80
54540;SHT30;40438;52.992;18.604;2023-03-15T06:53:26;21.26;58.90
54540;SHT30;40438;52.992;18.604;2023-03-15T06:55:53;21.30;58.84
54540;SHT30;40438;52.992;18.604;2023-03-15T06:58:20;21.26;58.72
54540;SHT30;40438;52.992;18.604;2023-03-15T07:00:45;21.27;58.92
54540;SHT30;40438;52.992;18.604;2023-03-15T07:03:11;21.27;58.73
54540;SHT30;40438;52.992;18.604;2023-03-15T07:05:37;21.27;58.82
54540;SHT30;40438;52.992;18.604;2023-03-15T07:08:03;21.28;58.60
54540;SHT30;40438;52.992;18.604;2023-03-15T07:10:29;21.28;58.82
54540;SHT30;40438;52.992;18.604;2023-03-15T07:12:54;21.26;58.53
54540;SHT30;40438;52.992;18.604;2023-03-15T07:15:22;21.26;58.67
54540;SHT30;40438;52.992;18.604;2023-03-15T07:17:47;21.26;58.36
54540;SHT30;40438;52.992;18.604;2023-03-15T07:20:13;21.26;58.45
54540;SHT30;40438;52.992;18.604;2023-03-15T07:22:39;21.27;58.33
54540;SHT30;40438;52.992;18.604;2023-03-15T07:25:05;21.28;58.35
54540;SHT30;40438;52.992;18.604;2023-03-15T07:27:31;21.28;58.14
54540;SHT30;40438;52.992;18.604;2023-03-15T07:29:57;21.27;58.23
54540;SHT30;40438;52.992;18.604;2023-03-15T07:32:24;21.27;58.18
54540;SHT30;40438;52.992;18.604;2023-03-15T07:34:50;21.27;58.42
54540;SHT30;40438;52.992;18.604;2023-03-15T07:37:16;21.26;58.25
54540;SHT30;40438;52.992;18.604;2023-03-15T07:39:41;21.27;58.20
54540;SHT30;40438;52.992;18.604;2023-03-15T07:42:08;21.24;58.13
54540;SHT30;40438;52.992;18.604;2023-03-15T07:44:39;21.27;58.06
54540;SHT30;40438;52.992;18.604;2023-03-15T07:47:06;21.27;58.20
54540;SHT30;40438;52.992;18.604;2023-03-15T07:49:33;21.28;57.98
54540;SHT30;40438;52.992;18.604;2023-03-15T07:51:59;21.31;57.82
54540;SHT30;40438;52.992;18.604;2023-03-15T07:54:26;21.28;57.81
54540;SHT30;40438;52.992;18.604;2023-03-15T07:56:51;21.28;57.93
54540;SHT30;40438;52.992;18.604;2023-03-15T07:59:17;21.30;57.98
54540;SHT30;40438;52.992;18.604;2023-03-15T08:01:43;21.28;58.09
54540;SHT30;40438;52.992;18.604;2023-03-15T08:04:09;21.28;57.85
54540;SHT30;40438;52.992;18.604;2023-03-15T08:06:36;21.27;57.99
54540;SHT30;40438;52.992;18.604;2023-03-15T08:09:02;21.27;57.98
54540;SHT30;40438;52.992;18.604;2023-03-15T08:11:27;21.30;58.02
54540;SHT30;40438;52.992;18.604;2023-03-15T08:13:53;21.30;57.98
54540;SHT30;40438;52.992;18.604;2023-03-15T08:16:19;21.32;57.95
54540;SHT30;40438;52.992;18.604;2023-03-15T08:18:45;21.40;58.19
54540;SHT30;40438;52.992;18.604;2023-03-15T08:21:10;21.41;57.81
54540;SHT30;40438;52.992;18.604;2023-03-15T08:23:38;21.41;57.86
54540;SHT30;40438;52.992;18.604;2023-03-15T08:26:04;21.45;57.50
54540;SHT30;40438;52.992;18.604;2023-03-15T08:28:29;21.44;57.56
54540;SHT30;40438;52.992;18.604;2023-03-15T08:30:55;21.47;57.76
54540;SHT30;40438;52.992;18.604;2023-03-15T08:33:21;21.47;57.70
54540;SHT30;40438;52.992;18.604;2023-03-15T08:35:51;21.51;57.83
54540;SHT30;40438;52.992;18.604;2023-03-15T08:38:17;21.45;58.07
54540;SHT30;40438;52.992;18.604;2023-03-15T08:40:44;21.48;57.88
54540;SHT30;40438;52.992;18.604;2023-03-15T08:43:10;21.48;58.15
54540;SHT30;40438;52.992;18.604;2023-03-15T08:45:35;21.51;58.34
54540;SHT30;40438;52.992;18.604;2023-03-15T08:48:01;21.62;57.78
54540;SHT30;40438;52.992;18.604;2023-03-15T08:50:27;21.61;58.02
54540;SHT30;40438;52.992;18.604;2023-03-15T08:52:53;21.55;58.03
54540;SHT30;40438;52.992;18.604;2023-03-15T08:55:19;21.61;57.66
54540;SHT30;40438;52.992;18.604;2023-03-15T08:57:46;21.61;57.88
54540;SHT30;40438;52.992;18.604;2023-03-15T09:00:13;21.61;57.91
54540;SHT30;40438;52.992;18.604;2023-03-15T09:02:39;21.58;57.94
54540;SHT30;40438;52.992;18.604;2023-03-15T09:05:04;21.57;57.74
54540;SHT30;40438;52.992;18.604;2023-03-15T09:07:30;21.55;57.85
54540;SHT30;40438;52.992;18.604;2023-03-15T09:09:56;21.54;57.65
54540;SHT30;40438;52.992;18.604;2023-03-15T09:12:22;21.52;57.68
54540;SHT30;40438;52.992;18.604;2023-03-15T09:14:49;21.52;57.69
54540;SHT30;40438;52.992;18.604;2023-03-15T09:17:15;21.51;57.84
54540;SHT30;40438;52.992;18.604;2023-03-15T09:19:40;21.49;57.59
54540;SHT30;40438;52.992;18.604;2023-03-15T09:22:06;21.47;57.63
54540;SHT30;40438;52.992;18.604;2023-03-15T09:24:32;21.47;57.64
54540;SHT30;40438;52.992;18.604;2023-03-15T09:26:58;21.42;57.41
54540;SHT30;40438;52.992;18.604;2023-03-15T09:29:24;21.45;57.40
54540;SHT30;40438;52.992;18.604;2023-03-15T09:31:51;21.42;57.23
54540;SHT30;40438;52.992;18.604;2023-03-15T09:34:17;21.42;57.22
54540;SHT30;40438;52.992;18.604;2023-03-15T09:36:42;21.44;57.06
54540;SHT30;40438;52.992;18.604;2023-03-15T09:39:08;21.41;57.11
54540;SHT30;40438;52.992;18.604;2023-03-15T09:41:40;21.42;57.15
54540;SHT30;40438;52.992;18.604;2023-03-15T09:44:15;21.40;57.01
54540;SHT30;40438;52.992;18.604;2023-03-15T09:46:47;21.41;57.17
54540;SHT30;40438;52.992;18.604;2023-03-15T09:49:23;21.52;56.53
54540;SHT30;40438;52.992;18.604;2023-03-15T09:51:55;21.55;56.44
54540;SHT30;40438;52.992;18.604;2023-03-15T09:54:26;21.55;56.50
54540;SHT30;40438;52.992;18.604;2023-03-15T09:56:55;21.58;56.51
54540;SHT30;40438;52.992;18.604;2023-03-15T09:59:25;21.58;56.36
54540;SHT30;40438;52.992;18.604;2023-03-15T10:01:55;21.55;56.35
54540;SHT30;40438;52.992;18.604;2023-03-15T10:04:27;21.58;56.16
54540;SHT30;40438;52.992;18.604;2023-03-15T10:06:55;21.57;56.03
54540;SHT30;40438;52.992;18.604;2023-03-15T10:09:23;21.57;56.11
54540;SHT30;40438;52.992;18.604;2023-03-15T10:11:58;21.55;56.06
54540;SHT30;40438;52.992;18.604;2023-03-15T10:14:33;21.51;55.74
54540;SHT30;40438;52.992;18.604;2023-03-15T10:17:05;21.52;56.01
54540;SHT30;40438;52.992;18.604;2023-03-15T10:19:41;21.55;55.78
54540;SHT30;40438;52.992;18.604;2023-03-15T10:22:17;21.58;55.86
54540;SHT30;40438;52.992;18.604;2023-03-15T10:24:47;21.59;56.00
54540;SHT30;40438;52.992;18.604;2023-03-15T10:27:18;21.58;56.53
54540;SHT30;40438;52.992;18.604;2023-03-15T10:29:46;21.54;56.42
54540;SHT30;40438;52.992;18.604;2023-03-15T10:32:16;21.55;56.20
54540;SHT30;40438;52.992;18.604;2023-03-15T10:34:46;21.59;56.29
54540;SHT30;40438;52.992;18.604;2023-03-15T10:37:12;21.61;56.34
54540;SHT30;40438;52.992;18.604;2023-03-15T10:39:38;21.59;56.68
54540;SHT30;40438;52.992;18.604;2023-03-15T10:42:04;21.61;56.66
54540;SHT30;40438;52.992;18.604;2023-03-15T10:44:35;21.62;56.71
54540;SHT30;40438;52.992;18.604;2023-03-15T10:47:03;21.63;56.79
54540;SHT30;40438;52.992;18.604;2023-03-15T10:49:33;21.63;56.79
54540;SHT30;40438;52.992;18.604;2023-03-15T10:52:00;21.66;56.71
54540;SHT30;40438;52.992;18.604;2023-03-15T10:54:26;21.63;56.77
54540;SHT30;40438;52.992;18.604;2023-03-15T10:56:56;21.66;56.81
54540;SHT30;40438;52.992;18.604;2023-03-15T10:59:25;21.65;56.81
54540;SHT30;40438;52.992;18.604;2023-03-15T11:01:52;21.66;56.74
54540;SHT30;40438;52.992;18.604;2023-03-15T11:04:21;21.68;56.66
54540;SHT30;40438;52.992;18.604;2023-03-15T11:06:48;21.69;56.40
54540;SHT30;40438;52.992;18.604;2023-03-15T11:09:17;21.65;56.59
54540;SHT30;40438;52.992;18.604;2023-03-15T11:11:56;21.66;56.47
54540;SHT30;40438;52.992;18.604;2023-03-15T11:14:22;21.63;56.32
54540;SHT30;40438;52.992;18.604;2023-03-15T11:16:51;21.59;56.48
54540;SHT30;40438;52.992;18.604;2023-03-15T11:19:19;21.63;56.35
54540;SHT30;40438;52.992;18.604;2023-03-15T11:21:48;21.63;56.37
54540;SHT30;40438;52.992;18.604;2023-03-15T11:24:23;21.57;56.60
54540;SHT30;40438;52.992;18.604;2023-03-15T11:26:49;21.58;56.49
54540;SHT30;40438;52.992;18.604;2023-03-15T11:29:20;21.51;56.45
54540;SHT30;40438;52.992;18.604;2023-03-15T11:31:48;21.55;56.45
54540;SHT30;40438;52.992;18.604;2023-03-15T11:34:23;21.98;55.28
54540;SHT30;40438;52.992;18.604;2023-03-15T11:36:53;21.75;55.96
54540;SHT30;40438;52.992;18.604;2023-03-15T11:39:29;21.69;55.71
54540;SHT30;40438;52.992;18.604;2023-03-15T11:42:02;21.66;55.96
54540;SHT30;40438;52.992;18.604;2023-03-15T11:44:36;21.59;56.26
54540;SHT30;40438;52.992;18.604;2023-03-15T11:47:07;21.37;56.69
54540;SHT30;40438;52.992;18.604;2023-03-15T11:49:41;21.27;56.60
54540;SHT30;40438;52.992;18.604;2023-03-15T11:52:09;21.28;56.10
54540;SHT30;40438;52.992;18.604;2023-03-15T11:54:37;21.35;55.26
54540;SHT30;40438;52.992;18.604;2023-03-15T11:57:04;21.51;54.64
54540;SHT30;40438;52.992;18.604;2023-03-15T11:59:32;21.22;55.63
54540;SHT30;40438;52.992;18.604;2023-03-15T12:01:59;21.20;56.16
54540;SHT30;40438;52.992;18.604;2023-03-15T12:04:41;21.27;55.73
54540;SHT30;40438;52.992;18.604;2023-03-15T12:10:30;21.20;55.42
54540;SHT30;40438;52.992;18.604;2023-03-15T12:12:57;21.27;55.25
54540;SHT30;40438;52.992;18.604;2023-03-15T12:15:45;21.26;54.97
54540;SHT30;40438;52.992;18.604;2023-03-15T12:18:15;21.35;54.52
54540;SHT30;40438;52.992;18.604;2023-03-15T12:20:44;21.59;54.22
54540;SHT30;40438;52.992;18.604;2023-03-15T12:23:21;21.61;54.21
54540;SHT30;40438;52.992;18.604;2023-03-15T12:25:52;21.40;53.98
54540;SHT30;40438;52.992;18.604;2023-03-15T12:28:21;21.13;54.49
54540;SHT30;40438;52.992;18.604;2023-03-15T12:30:53;21.04;54.34
54540;SHT30;40438;52.992;18.604;2023-03-15T12:33:20;21.01;54.41
54540;SHT30;40438;52.992;18.604;2023-03-15T12:35:48;21.01;54.39
54540;SHT30;40438;52.992;18.604;2023-03-15T12:38:15;21.01;54.34
54540;SHT30;40438;52.992;18.604;2023-03-15T12:40:52;21.01;54.60
54540;SHT30;40438;52.992;18.604;2023-03-15T12:43:36;21.15;54.26
54540;SHT30;40438;52.992;18.604;2023-03-15T12:46:03;21.17;54.06
54540;SHT30;40438;52.992;18.604;2023-03-15T12:48:29;21.14;54.06
54540;SHT30;40438;52.992;18.604;2023-03-15T12:51:12;21.01;54.46
54540;SHT30;40438;52.992;18.604;2023-03-15T12:53:58;21.38;54.31
54540;SHT30;40438;52.992;18.604;2023-03-15T12:56:36;21.07;54.24
54540;SHT30;40438;52.992;18.604;2023-03-15T12:59:21;21.03;53.87
54540;SHT30;40438;52.992;18.604;2023-03-15T13:01:49;21.00;53.89
54540;SHT30;40438;52.992;18.604;2023-03-15T13:04:15;20.97;54.34
54540;SHT30;40438;52.992;18.604;2023-03-15T13:07:00;21.15;53.86
54540;SHT30;40438;52.992;18.604;2023-03-15T13:09:56;21.13;53.39
54540;SHT30;40438;52.992;18.604;2023-03-15T13:12:28;21.11;53.45
54540;SHT30;40438;52.992;18.604;2023-03-15T13:15:00;21.10;53.54
54540;SHT30;40438;52.992;18.604;2023-03-15T13:17:35;21.11;53.23
54540;SHT30;40438;52.992;18.604;2023-03-15T13:20:15;21.11;53.02
54540;SHT30;40438;52.992;18.604;2023-03-15T13:22:49;21.14;53.32
54540;SHT30;40438;52.992;18.604;2023-03-15T13:25:20;21.13;53.78
54540;SHT30;40438;52.992;18.604;2023-03-15T13:27:53;21.31;53.13
54540;SHT30;40438;52.992;18.604;2023-03-15T13:30:31;21.24;54.34
54540;SHT30;40438;52.992;18.604;2023-03-15T13:33:04;21.17;54.89
54540;SHT30;40438;52.992;18.604;2023-03-15T13:35:30;21.18;55.29
54540;SHT30;40438;52.992;18.604;2023-03-15T13:38:05;21.24;56.34
54540;SHT30;40438;52.992;18.604;2023-03-15T13:40:31;21.26;57.02
54540;SHT30;40438;52.992;18.604;2023-03-15T13:43:00;21.03;57.85
54540;SHT30;40438;52.992;18.604;2023-03-15T13:45:26;20.96;58.33
54540;SHT30;40438;52.992;18.604;2023-03-15T13:47:51;20.99;59.26
54540;SHT30;40438;52.992;18.604;2023-03-15T13:50:19;21.11;59.62
54540;SHT30;40438;52.992;18.604;2023-03-15T13:52:46;21.26;59.47
54540;SHT30;40438;52.992;18.604;2023-03-15T13:55:13;21.31;60.02
54540;SHT30;40438;52.992;18.604;2023-03-15T13:57:40;21.34;60.22
54540;SHT30;40438;52.992;18.604;2023-03-15T14:00:10;21.34;60.50
54540;SHT30;40438;52.992;18.604;2023-03-15T14:02:43;21.41;60.29
54540;SHT30;40438;52.992;18.604;2023-03-15T14:05:14;21.21;60.53
54540;SHT30;40438;52.992;18.604;2023-03-15T14:07:41;21.11;61.20
54540;SHT30;40438;52.992;18.604;2023-03-15T14:10:20;21.00;61.44
54540;SHT30;40438;52.992;18.604;2023-03-15T14:12:46;20.90;61.62
54540;SHT30;40438;52.992;18.604;2023-03-15T14:15:17;20.89;61.30
54540;SHT30;40438;52.992;18.604;2023-03-15T14:17:52;20.97;60.39
54540;SHT30;40438;52.992;18.604;2023-03-15T14:20:23;21.00;61.25
54540;SHT30;40438;52.992;18.604;2023-03-15T14:22:50;20.99;60.88
54540;SHT30;40438;52.992;18.604;2023-03-15T14:25:20;21.06;60.73
54540;SHT30;40438;52.992;18.604;2023-03-15T14:27:46;21.15;60.43
54540;SHT30;40438;52.992;18.604;2023-03-15T14:30:18;21.27;58.93
54540;SHT30;40438;52.992;18.604;2023-03-15T14:32:51;21.28;60.65
54540;SHT30;40438;52.992;18.604;2023-03-15T14:35:20;21.27;60.83
54540;SHT30;40438;52.992;18.604;2023-03-15T14:37:47;21.34;61.27
54540;SHT30;40438;52.992;18.604;2023-03-15T14:40:18;21.35;61.35
54540;SHT30;40438;52.992;18.604;2023-03-15T14:42:44;21.34;61.44
54540;SHT30;40438;52.992;18.604;2023-03-15T14:45:11;21.35;61.64
54540;SHT30;40438;52.992;18.604;2023-03-15T14:47:41;21.32;61.39
54540;SHT30;40438;52.992;18.604;2023-03-15T14:50:11;21.20;61.71
54540;SHT30;40438;52.992;18.604;2023-03-15T14:52:37;21.14;61.68
54540;SHT30;40438;52.992;18.604;2023-03-15T14:55:03;21.20;62.09
54540;SHT30;40438;52.992;18.604;2023-03-15T14:57:29;21.24;61.80
54540;SHT30;40438;52.992;18.604;2023-03-15T14:59:55;21.14;61.76
54540;SHT30;40438;52.992;18.604;2023-03-15T15:02:20;21.11;61.26
54540;SHT30;40438;52.992;18.604;2023-03-15T15:04:48;21.11;61.17
54540;SHT30;40438;52.992;18.604;2023-03-15T15:07:14;21.15;61.53
54540;SHT30;40438;52.992;18.604;2023-03-15T15:09:48;21.08;62.37
54540;SHT30;40438;52.992;18.604;2023-03-15T15:12:14;20.99;63.36
54540;SHT30;40438;52.992;18.604;2023-03-15T15:14:40;21.08;62.92
54540;SHT30;40438;52.992;18.604;2023-03-15T15:17:05;21.10;62.99
54540;SHT30;40438;52.992;18.604;2023-03-15T15:19:31;21.13;63.96
54540;SHT30;40438;52.992;18.604;2023-03-15T15:21:58;21.03;62.62
54540;SHT30;40438;52.992;18.604;2023-03-15T15:24:25;21.01;62.75
54540;SHT30;40438;52.992;18.604;2023-03-15T15:26:51;20.84;63.93
54540;SHT30;40438;52.992;18.604;2023-03-15T15:29:17;20.82;64.74
54540;SHT30;40438;52.992;18.604;2023-03-15T15:31:44;20.83;64.77
54540;SHT30;40438;52.992;18.604;2023-03-15T15:34:10;20.82;64.34
54540;SHT30;40438;52.992;18.604;2023-03-15T15:36:38;20.77;64.41